РПИ Москва

Московский район полётной информации (UUWV, УУВЖ) является одним из крупнейших РПИ в воздушном пространстве Российской Федерации в сети Vatsim.

РПИ объединяет в себя Московский Узловой Диспетчерский Район (МУДР), в состав которого входят такие крупнейшие аэропорты России, как ДомодедовоШереметьево и Внуково.

Помимо основного аэроузла МУДР в состав РПИ входят аэродромы городов Нижний Новгород, Белгород, Воронеж, Тверь, Курск, Брянск, Ярославль и другие.

Фотосценарий города Москва вы можете найти здесь:

FSX-P3D (платный)

X-Plane (платный); X-Plane (бесплатный) часть 1часть 2

Платные сценарии включают в себя аэропорты: UUBW Zhukovski, UUMO Ostafyevo, UUBM Myachkovo and UUMB Kubinka.

Руководитель РПИ

Ilya Pyankov

Инструкторы РПИ
Alexander Petrenko * (Senior Student)
Alexey Dobronravov (Instructor)
Anton Myglan (Senior Instructor)
Artem Smorchkov * (Controller)
Dmitry Markus (Instructor)
Ilya Pyankov (Instructor)
Ivan Skatov (Instructor)
Matvey Safyannikov (Instructor)
Maxim Tsygankov (Instructor)
Yulia Goryacheva (Instructor)
Входит в состав
ЗЦ Москва

Диспетчеры РПИ

Диспетчер Рейтинг Допуски *
Alexander Petrenko Senior Student UUWV_CTR *, MSK_APP(UUEE+UUDD+UUWW)
Alexey Dobronravov Instructor UUWV_CTR
Dmitry Markus Instructor UUWV_CTR
George Kalandadze Senior Student UUWV_CTR *, MSK_APP(UUEE+UUDD+UUWW)
Ivan Skatov Instructor UUWV_CTR
Karim Garifullin Senior Student UUWV_CTR *, MSK_APP(UUEE+UUWW+UUDD)
Maxim Tsygankov Instructor UUWV_CTR
Robert Farber Senior Student UUWV_CTR *, MSK_APP(UUWW+UUDD+UUEE)
Sergey Kovalenko Controller UUWV_CTR
Yulia Goryacheva Instructor UUWV_CTR
Yury Koryagin Instructor UUWV_CTR
Aleksandr Lysenko Student UUWW_GND, UUWW_TWR*
Anastasia Lokotaeva Student UUEE_N_GND, UUEE_S_GND
Anton Beshenov Student UUEE_S_GND, UUEE_N_GND
Artem Smorchkov Controller UUWW_TWR
Artem Smychkov Controller UUDD_F_APP, UUDD_APP, UUDD_DEP, UUEE_APP, UUEE_DEP, UUEE_F_APP, UUWW_APP, UUWW_DEP, UUWW_F_APP
Arteom Alexeev Student UUDD_GND
Bogdan Mavrodiev Student UUDD_GND
Danil Basharov Student 2 UUDD_F_APP*, UUDD_APP*, UUDD_TWR, UUDD_DEP*
Egor Smirnov Student UUWW_TWR*, UUWW_GND
Evgeniy Dedyaev Senior Student MSK_APP(UUWW+UUEE+UUDD)
Ilya Shayakhmetov Student UUEE_N_GND, UUEE_S_GND
Ivan Buev Student 2 MSK_APP(UUEE+UUDD+UUWW), UUEE_N_TWR, UUEE_S_TWR
Kirill Ryabov Student 2 UUEE_DEP*, UUEE_F_APP*, UUEE_APP*
Kseniia Dedukh Senior Student UUDD_DEP, UUDD_F_APP, UUDD_APP
Masha Stanchenko Student UUWW_GND, UUWW_TWR*
Maxim Fetko Student UUEE_N_GND, UUEE_S_GND
Maxim Kalalenskiy Student UUWW_GND
Mikhail Kirillov Student UUEE_N_GND, UUEE_S_GND
Nick Smirnov Student UUEE_S_TWR*, UUEE_N_GND, UUEE_S_GND, UUEE_N_TWR*, UUWW_GND
Nikita Levin Student 2 UUWW_TWR, UUWW_F_APP*, UUWW_APP*, UUWW_DEP*
Oleg Konstantinov Student 2 UUEE_APP*, UUEE_N_TWR, UUEE_DEP*, UUEE_S_TWR, UUEE_F_APP*
Rodion Shumakher Student UUDD_GND
Sergey Isaev Student 2 UUEE_N_TWR*, UUEE_S_TWR*, UUEE_N_GND, UUEE_S_GND
Stanley Yorke Controller UUWW_DEP, UUWW_F_APP, UUWW_APP
Vladimir Kon Student UUDD_GND
Vyacheslav Neklyudov Student 2 UUEE_N_TWR, UUEE_S_TWR, UUWW_F_APP*, UUWW_APP*, UUWW_DEP*
Yury Kompaniychenko Student 2 UUML_TWR!!!

Аэропорты РПИ

ICAO Город Название Погода
UUWW Москва Внуково UUWW 161830Z 21005MPS CAVOK M06/M09 Q1004 R24/420350 NOSIG
UUDD Москва Домодедово UUDD 161830Z 24005MPS 220V280 CAVOK M06/M10 Q1004 R88/520240 NOSIG
UUBW Москва Жуковский UUBW 161830Z 24004MPS CAVOK M05/M09 Q1005 R30/410145 NOSIG
UUMU Москва Чкаловский
UUEE Москва Шереметьево UUEE 161830Z 22006MPS CAVOK M06/M09 Q1003 R24L/550336 R24C/550330 R24R/550336 NOSIG
UUOB Белгород Белгород UUOB 161830Z 26003MPS 9999 BKN042 M02/M06 Q1014 R29/850345 NOSIG
UUBP Брянск Брянск UUBP 161830Z AUTO 18003MPS 9999 NCD M07/M10 Q1010 RMK QFE740/0986
UUOO Воронеж Воронеж UUOO 161830Z 26003MPS CAVOK M04/M06 Q1011 R30/250145 NOSIG RMK QFE745
UUBI Иваново Иваново
UUBC Калуга Калуга UUBC 161830Z 24004MPS CAVOK M06/M08 Q1007 R13/820145 NOSIG RMK QFE737/0983
UUOK Курск Курск UUOK 161830Z 25002MPS CAVOK M05/M10 Q1012 R30/410155 NOSIG RMK QFE741/0988
UUMO Москва Остафьево UUMO 161830Z 23003MPS CAVOK M06/M09 Q1005 R25/450242 NOSIG RMK QFE738/0984
UWGG Нижний Новгород Стригино UWGG 161830Z 24003MPS 9999 OVC023 M06/M09 Q1003 R18L/490140 NOSIG
UUMW Ватулино Ватулино
UUML Воскресенск Северка
UUDL Ярославль Туношна UUDL 161830Z 23005MPS 9999 BKN040 M04/M08 Q0998 R23/890539 NOSIG RMK QFE741